Leontios H — SVCL6 — position and weather

sailwx.info

Track history (hours):
 
Tides and Currents Weather Stations Pressure Air Temp Water Temp Dewpoint Dewpoint Depression Visibility Wind Speed Wind Dir Waves Ship Positions

Leontios H

Last reported at 2018-Jun-20 09:28 UTC. Time now 2018-Jun-20 09:47 UTC.
Position N 52°00' E 003°10'.

Length 250 m; draft 13.9 m.

Type: Tanker. MMSI: 241454000.

Date/timePositionNaut miles runAvg speedWind from/ knotsBaromVisibWave heightAir tempDewpointWater temp
2018-Jun-20 09:28N 52°00' E 003°10'0 0.0
2018-Jun-20 08:49N 52°00' E 003°10'0 0.0
2018-Jun-20 08:28N 52°00' E 003°10'0 0.0
2018-Jun-20 07:52N 52°00' E 003°10'0 0.0
2018-Jun-20 06:49N 52°00' E 003°10'0 0.0
2018-Jun-20 06:22N 52°00' E 003°10'0 0.0
2018-Jun-20 05:55N 52°00' E 003°10'0 0.0
2018-Jun-20 05:16N 52°00' E 003°10'0 0.2
2018-Jun-20 03:52N 52°00' E 003°09'0 0.1
2018-Jun-20 03:22N 52°00' E 003°09'0 0.1
2018-Jun-20 02:58N 52°00' E 003°09'0 0.0
2018-Jun-20 02:19N 52°00' E 003°09'0 0.0
2018-Jun-20 01:58N 52°00' E 003°09'0 0.1
2018-Jun-20 00:40N 52°00' E 003°09'0 0.3
2018-Jun-20 00:16N 52°00' E 003°09'0 0.3
2018-Jun-19 23:52N 52°00' E 003°09'0 0.1
2018-Jun-19 23:07N 52°00' E 003°09'0 0.0
2018-Jun-19 22:10N 52°00' E 003°09'0 0.0
2018-Jun-19 21:46N 52°00' E 003°10'0 0.0
2018-Jun-19 20:34N 52°00' E 003°10'0 0.0
2018-Jun-19 20:22N 52°00' E 003°10'0 0.1
2018-Jun-19 19:28N 52°00' E 003°10'0 0.0
2018-Jun-19 17:46N 52°00' E 003°10'0 0.0
2018-Jun-19 17:22N 52°00' E 003°10'0 0.0
2018-Jun-19 16:58N 52°00' E 003°10'0 0.1
2018-Jun-19 14:58N 52°00' E 003°09'0 0.0
2018-Jun-19 13:16N 52°00' E 003°09'0 0.0
2018-Jun-19 12:46N 52°00' E 003°09'0 0.0
2018-Jun-19 12:28N 52°00' E 003°09'0 0.0
2018-Jun-19 11:58N 52°00' E 003°09'0 0.1
2018-Jun-19 11:22N 52°00' E 003°09'0 0.3
2018-Jun-19 10:46N 52°00' E 003°09'0 0.2
2018-Jun-19 09:43N 52°00' E 003°09'0 0.0
2018-Jun-19 09:10N 52°00' E 003°09'0 0.0
2018-Jun-19 08:58N 52°00' E 003°09'0 0.0
2018-Jun-19 08:25N 52°00' E 003°10'0 0.0
2018-Jun-19 07:49N 52°00' E 003°10'0 0.0
2018-Jun-19 07:22N 52°00' E 003°10'0 0.0
2018-Jun-19 06:58N 52°00' E 003°10'0 0.0
2018-Jun-19 06:28N 52°00' E 003°10'0 0.1
2018-Jun-19 05:52N 52°00' E 003°10'0 0.0
2018-Jun-19 05:22N 52°00' E 003°10'0 0.0
2018-Jun-19 04:46N 52°00' E 003°10'0 0.1
2018-Jun-19 01:31N 52°00' E 003°09'0 0.1
2018-Jun-18 22:07N 52°00' E 003°10'0 0.2
2018-Jun-18 21:52N 52°00' E 003°10'0 0.0
2018-Jun-18 19:52N 52°00' E 003°10'0 0.0
2018-Jun-18 19:28N 52°00' E 003°10'0 0.0
2018-Jun-18 18:55N 52°00' E 003°10'0 0.0
2018-Jun-18 18:28N 52°00' E 003°10'0 0.0
2018-Jun-18 17:40N 52°00' E 003°10'0 0.0
2018-Jun-18 17:22N 52°00' E 003°10'0 0.1
2018-Jun-18 16:58N 52°00' E 003°10'0 0.0
2018-Jun-18 16:07N 52°00' E 003°10'0 0.0
2018-Jun-18 15:58N 52°00' E 003°10'0 0.0
2018-Jun-18 15:16N 52°00' E 003°10'0 0.3
2018-Jun-18 14:40N 52°00' E 003°10'0 0.3
2018-Jun-18 14:22N 52°00' E 003°09'0 0.1
2018-Jun-18 10:10N 52°00' E 003°10'0 0.1
2018-Jun-18 08:28N 52°00' E 003°09'0 0.0
2018-Jun-18 06:40N 52°00' E 003°10'0 0.0
2018-Jun-18 06:04N 52°00' E 003°10'0 0.0
2018-Jun-18 05:58N 52°00' E 003°10'0 0.0
2018-Jun-17 21:43N 52°00' E 003°10'0 0.4
2018-Jun-17 21:30N 52°00' E 003°10'6 4.2
2018-Jun-17 20:09N 52°02' E 003°19'2 9.6
2018-Jun-17 19:59N 52°03' E 003°20'5 9.8
2018-Jun-17 19:30N 52°08' E 003°19'612.0
2018-Jun-17 18:59N 52°12' E 003°13'911.1
2018-Jun-17 18:13N 52°21' E 003°09'211.2
2018-Jun-17 18:00N 52°23' E 003°09'611.2
2018-Jun-17 17:30N 52°28' E 003°08'510.1
2018-Jun-17 16:58N 52°34' E 003°08'48612.0
2018-Jun-16 00:22N 60°38' E 004°21'411.7
2018-Jun-16 00:00N 60°41' E 004°28'4 8.1
2018-Jun-15 23:30N 60°44' E 004°32'510.6
2018-Jun-15 23:00N 60°44' E 004°43'5 9.6
2018-Jun-15 22:30N 60°41' E 004°50'4 7.9
2018-Jun-15 22:00N 60°37' E 004°52'0 0.6
2018-Jun-15 21:29N 60°37' E 004°52'0 0.0
2018-Jun-15 20:59N 60°37' E 004°52'0 0.0
2018-Jun-15 20:29N 60°37' E 004°52'0 0.0
2018-Jun-15 19:59N 60°37' E 004°52'0 0.0
2018-Jun-15 19:29N 60°37' E 004°52'0 0.0
2018-Jun-15 18:59N 60°37' E 004°52'0 0.0
2018-Jun-15 18:29N 60°37' E 004°52'0 0.0
2018-Jun-15 17:59N 60°37' E 004°52'0 0.0
2018-Jun-15 17:29N 60°37' E 004°52'0 0.0
2018-Jun-15 16:59N 60°37' E 004°52'0 0.0
2018-Jun-15 16:29N 60°37' E 004°52'0 0.0
2018-Jun-15 15:59N 60°37' E 004°52'0 0.0
2018-Jun-15 15:29N 60°37' E 004°52'0 0.0
2018-Jun-15 14:59N 60°37' E 004°52'0 0.0
2018-Jun-15 14:29N 60°37' E 004°52'0 0.0
2018-Jun-15 13:59N 60°37' E 004°52'0 0.0
2018-Jun-15 13:29N 60°37' E 004°52'0 0.0
2018-Jun-15 12:59N 60°37' E 004°52'0 0.0
2018-Jun-15 12:29N 60°37' E 004°52'0 0.0
2018-Jun-15 11:59N 60°37' E 004°52'0 0.0
2018-Jun-15 11:29N 60°37' E 004°52'0 0.0
2018-Jun-15 10:59N 60°37' E 004°52'0 0.0
2018-Jun-15 10:29N 60°37' E 004°52'0 0.0
2018-Jun-15 09:59N 60°37' E 004°52'0 0.0
2018-Jun-15 09:29N 60°37' E 004°52'0 0.0
2018-Jun-15 08:59N 60°37' E 004°52'0 0.0
2018-Jun-15 08:29N 60°37' E 004°52'0 0.0
2018-Jun-15 07:59N 60°37' E 004°52'0 0.0
2018-Jun-15 07:29N 60°37' E 004°52'0 0.0
2018-Jun-15 06:59N 60°37' E 004°52'0 0.0
2018-Jun-15 06:29N 60°37' E 004°52'0 0.0
2018-Jun-15 05:59N 60°37' E 004°52'0 0.0
2018-Jun-15 05:29N 60°37' E 004°52'0 0.0
2018-Jun-15 04:59N 60°37' E 004°52'0 0.0
2018-Jun-15 04:29N 60°37' E 004°52'0 0.0
2018-Jun-15 03:59N 60°37' E 004°52'0 0.0
2018-Jun-15 03:26N 60°37' E 004°52'0 0.0
2018-Jun-15 02:59N 60°37' E 004°52'0 0.0
2018-Jun-15 02:29N 60°37' E 004°52'0 0.0
2018-Jun-15 01:59N 60°37' E 004°52'0 0.0
2018-Jun-15 01:29N 60°37' E 004°52'0 0.0
2018-Jun-15 01:00N 60°37' E 004°52'1 1.3
2018-Jun-15 00:30N 60°38' E 004°52'3 5.5
2018-Jun-15 00:00N 60°40' E 004°51'510.2
2018-Jun-14 23:29N 60°44' E 004°43'5 9.8
2018-Jun-14 22:58N 60°45' E 004°33'3 7.0
2018-Jun-14 22:30N 60°45' E 004°26'1 2.4
2018-Jun-14 22:00N 60°44' E 004°28'3 4.8
2018-Jun-14 21:29N 60°41' E 004°27'3 5.7
2018-Jun-14 21:00N 60°39' E 004°26'1 1.4
2018-Jun-14 20:30N 60°38' E 004°25'0 0.9
2018-Jun-14 19:59N 60°38' E 004°24'1 1.3
2018-Jun-14 19:29N 60°39' E 004°24'1 1.3
2018-Jun-14 19:00N 60°39' E 004°24'1 1.5
2018-Jun-14 18:29N 60°40' E 004°24'1 1.4
2018-Jun-14 18:00N 60°41' E 004°23'2 3.0
2018-Jun-14 17:30N 60°42' E 004°21'1 2.6
2018-Jun-14 17:00N 60°43' E 004°19'20 3.5
2018-Jun-14 11:25N 61°02' E 004°14'1 3.6
2018-Jun-14 11:00N 61°01' E 004°16'3 6.6
2018-Jun-14 10:30N 60°58' E 004°16'3 6.7
2018-Jun-14 10:00N 60°54' E 004°16'11 4.2
2018-Jun-14 07:23N 60°44' E 004°19'1 3.4
2018-Jun-14 07:00N 60°42' E 004°20'2 3.1
2018-Jun-14 06:30N 60°43' E 004°23'2 4.0
2018-Jun-14 06:00N 60°42' E 004°27'5 9.7
2018-Jun-14 05:30N 60°37' E 004°23'16412.7
2018-Jun-13 16:33N 57°58' E 003°03'213.3
2018-Jun-13 16:25N 57°56' E 003°02'913.1
2018-Jun-13 15:46N 57°48' E 002°58'813.0
2018-Jun-13 15:09N 57°40' E 002°54'313.2
2018-Jun-13 14:55N 57°37' E 002°52'613.1
2018-Jun-13 14:26N 57°31' E 002°49'812.8
2018-Jun-13 13:50N 57°24' E 002°46'17112.3
2018-Jun-12 23:55N 54°46' E 000°47'612.1
2018-Jun-12 23:27N 54°41' E 000°44'512.0
2018-Jun-12 23:00N 54°35' E 000°42'612.2
2018-Jun-12 22:30N 54°29' E 000°39'612.4
2018-Jun-12 22:00N 54°24' E 000°36'612.7
2018-Jun-12 21:30N 54°17' E 000°33'612.9
2018-Jun-12 21:00N 54°11' E 000°30'713.1
2018-Jun-12 20:28N 54°04' E 000°29'2012.9
2018-Jun-12 18:54N 53°44' E 000°29'512.6
2018-Jun-12 18:30N 53°40' E 000°23'5 9.2
2018-Jun-12 17:59N 53°36' E 000°20'510.9
2018-Jun-12 17:30N 53°33' E 000°13'710.8
2018-Jun-12 16:52N 53°35' E 000°02'410.4
2018-Jun-12 16:30N 53°36' W 000°04'4 7.8
2018-Jun-12 16:00N 53°38' W 000°10'0 0.3
2018-Jun-12 15:30N 53°38' W 000°10'0 0.0
2018-Jun-12 15:00N 53°38' W 000°10'0 0.0
2018-Jun-12 14:30N 53°38' W 000°10'0 0.0
2018-Jun-12 14:00N 53°38' W 000°10'0 0.0
2018-Jun-12 13:27N 53°38' W 000°10'0 0.0
2018-Jun-12 13:00N 53°38' W 000°10'0 0.0
2018-Jun-12 12:30N 53°38' W 000°10'0 0.0
2018-Jun-12 12:00N 53°38' W 000°10'0 0.0
2018-Jun-12 11:30N 53°38' W 000°10'0 0.0
2018-Jun-12 11:00N 53°38' W 000°10'0 0.0
2018-Jun-12 10:27N 53°38' W 000°10'0 0.0
2018-Jun-12 10:00N 53°38' W 000°10'0 0.0
2018-Jun-12 09:30N 53°38' W 000°10'0 0.0
2018-Jun-12 08:57N 53°38' W 000°10'0 0.0
2018-Jun-12 08:27N 53°38' W 000°10'0 0.0
2018-Jun-12 08:00N 53°38' W 000°10'0 0.0
2018-Jun-12 07:27N 53°38' W 000°10'0 0.0
2018-Jun-12 07:00N 53°38' W 000°10'0 0.0
2018-Jun-12 06:30N 53°38' W 000°10'0 0.0
2018-Jun-12 05:57N 53°38' W 000°10'0 0.0
2018-Jun-12 05:27N 53°38' W 000°10'0 0.0
2018-Jun-12 04:48N 53°38' W 000°10'0 0.0
2018-Jun-12 04:27N 53°38' W 000°10'0 0.0
2018-Jun-12 03:57N 53°38' W 000°10'0 0.0
2018-Jun-12 03:30N 53°38' W 000°10'0 0.0
2018-Jun-12 03:00N 53°38' W 000°10'0 0.0
2018-Jun-12 02:30N 53°38' W 000°10'0 0.0
2018-Jun-12 02:00N 53°38' W 000°10'0 0.0
2018-Jun-12 01:30N 53°38' W 000°10'0 0.0
2018-Jun-12 00:57N 53°38' W 000°10'0 0.0
2018-Jun-12 00:30N 53°38' W 000°10'0 0.0
2018-Jun-12 00:00N 53°38' W 000°10'0 0.0
2018-Jun-11 23:30N 53°38' W 000°10'0 0.0
2018-Jun-11 22:57N 53°38' W 000°10'0 0.0
2018-Jun-11 22:27N 53°38' W 000°10'0 0.0
2018-Jun-11 21:36N 53°38' W 000°10'0 0.0
2018-Jun-11 21:21N 53°38' W 000°10'0 0.0
2018-Jun-11 20:57N 53°38' W 000°10'0 0.0
2018-Jun-11 20:24N 53°38' W 000°10'0 0.0
2018-Jun-11 20:00N 53°38' W 000°10'0 0.0
2018-Jun-11 19:30N 53°38' W 000°10'0 0.0
2018-Jun-11 19:00N 53°38' W 000°10'0 0.0
2018-Jun-11 18:30N 53°38' W 000°10'0 0.0
2018-Jun-11 18:00N 53°38' W 000°10'0 0.0
2018-Jun-11 17:27N 53°38' W 000°10'0 0.0
2018-Jun-11 16:54N 53°38' W 000°10'0 0.0
2018-Jun-11 16:27N 53°38' W 000°10'0 0.0
2018-Jun-11 15:57N 53°38' W 000°10'0 0.0
2018-Jun-11 15:30N 53°38' W 000°10'0 0.0
2018-Jun-11 15:00N 53°38' W 000°10'0 0.0
2018-Jun-11 14:30N 53°38' W 000°10'0 0.0
2018-Jun-11 14:00N 53°38' W 000°10'0 0.0
2018-Jun-11 13:30N 53°38' W 000°10'0 0.0
2018-Jun-11 13:00N 53°38' W 000°10'0 0.0
2018-Jun-11 12:24N 53°38' W 000°10'0 0.0
2018-Jun-11 11:57N 53°38' W 000°10'0 0.0
2018-Jun-11 11:30N 53°38' W 000°10'0 0.0
2018-Jun-11 11:00N 53°38' W 000°10'0 0.0
2018-Jun-11 10:30N 53°38' W 000°10'0 0.0
2018-Jun-11 09:57N 53°38' W 000°10'0 0.0
2018-Jun-11 09:30N 53°38' W 000°10'0 0.0
2018-Jun-11 08:51N 53°38' W 000°10'0 0.0
2018-Jun-11 08:24N 53°38' W 000°10'0 0.0
2018-Jun-11 08:00N 53°38' W 000°10'0 0.0
2018-Jun-11 07:30N 53°38' W 000°10'0 0.0
2018-Jun-11 07:00N 53°38' W 000°10'0 0.0
2018-Jun-11 06:27N 53°38' W 000°10'0 0.0
2018-Jun-11 04:28N 53°38' W 000°10'0 0.5
2018-Jun-11 04:00N 53°38' W 000°09'1 2.3
2018-Jun-11 03:30N 53°37' W 000°08'2 4.6
2018-Jun-11 03:00N 53°37' W 000°04'4 8.5
2018-Jun-11 02:30N 53°36' E 000°03'510.0
2018-Jun-11 02:00N 53°33' E 000°10'5 9.1
2018-Jun-11 01:30N 53°35' E 000°17'5 9.3
2018-Jun-11 01:00N 53°39' E 000°22'1 3.0
2018-Jun-11 00:30N 53°40' E 000°23'1 1.3
2018-Jun-11 00:00N 53°41' E 000°23'3 5.3
2018-Jun-10 23:30N 53°43' E 000°26'3 6.7
2018-Jun-10 23:00N 53°46' E 000°28'1 1.7
2018-Jun-10 22:25N 53°46' E 000°26'0 0.2
2018-Jun-10 21:52N 53°46' E 000°26'0 0.0
2018-Jun-10 20:10N 53°46' E 000°26'0 0.0
2018-Jun-10 19:52N 53°46' E 000°26'0 0.0
2018-Jun-10 19:28N 53°46' E 000°26'0 0.0
2018-Jun-10 18:55N 53°46' E 000°26'0 0.0
2018-Jun-10 18:28N 53°46' E 000°26'0 0.0
2018-Jun-10 17:55N 53°46' E 000°26'0 0.1
2018-Jun-10 17:22N 53°46' E 000°26'0 0.0
2018-Jun-10 10:16N 53°46' E 000°26'  
Track history (hours):
 
Tides and Currents Weather Stations Pressure Air Temp Water Temp Dewpoint Dewpoint Depression Visibility Wind Speed Wind Dir Waves Ship Positions

Leontios H

Last reported at 2018-Jun-20 09:28 UTC. Time now 2018-Jun-20 09:47 UTC.
Position N 52°00' E 003°10'.

Length 250 m; draft 13.9 m.

Type: Tanker. MMSI: 241454000.

Date/timePositionNaut miles runAvg speedWind from/ knotsBaromVisibWave heightAir tempDewpointWater temp
2018-Jun-20 09:28N 52°00' E 003°10'0 0.0
2018-Jun-20 08:49N 52°00' E 003°10'0 0.0
2018-Jun-20 08:28N 52°00' E 003°10'0 0.0
2018-Jun-20 07:52N 52°00' E 003°10'0 0.0
2018-Jun-20 06:49N 52°00' E 003°10'0 0.0
2018-Jun-20 06:22N 52°00' E 003°10'0 0.0
2018-Jun-20 05:55N 52°00' E 003°10'0 0.0
2018-Jun-20 05:16N 52°00' E 003°10'0 0.2
2018-Jun-20 03:52N 52°00' E 003°09'0 0.1
2018-Jun-20 03:22N 52°00' E 003°09'0 0.1
2018-Jun-20 02:58N 52°00' E 003°09'0 0.0
2018-Jun-20 02:19N 52°00' E 003°09'0 0.0
2018-Jun-20 01:58N 52°00' E 003°09'0 0.1
2018-Jun-20 00:40N 52°00' E 003°09'0 0.3
2018-Jun-20 00:16N 52°00' E 003°09'0 0.3
2018-Jun-19 23:52N 52°00' E 003°09'0 0.1
2018-Jun-19 23:07N 52°00' E 003°09'0 0.0
2018-Jun-19 22:10N 52°00' E 003°09'0 0.0
2018-Jun-19 21:46N 52°00' E 003°10'0 0.0
2018-Jun-19 20:34N 52°00' E 003°10'0 0.0
2018-Jun-19 20:22N 52°00' E 003°10'0 0.1
2018-Jun-19 19:28N 52°00' E 003°10'0 0.0
2018-Jun-19 17:46N 52°00' E 003°10'0 0.0
2018-Jun-19 17:22N 52°00' E 003°10'0 0.0
2018-Jun-19 16:58N 52°00' E 003°10'0 0.1
2018-Jun-19 14:58N 52°00' E 003°09'0 0.0
2018-Jun-19 13:16N 52°00' E 003°09'0 0.0
2018-Jun-19 12:46N 52°00' E 003°09'0 0.0
2018-Jun-19 12:28N 52°00' E 003°09'0 0.0
2018-Jun-19 11:58N 52°00' E 003°09'0 0.1
2018-Jun-19 11:22N 52°00' E 003°09'0 0.3
2018-Jun-19 10:46N 52°00' E 003°09'0 0.2
2018-Jun-19 09:43N 52°00' E 003°09'0 0.0
2018-Jun-19 09:10N 52°00' E 003°09'0 0.0
2018-Jun-19 08:58N 52°00' E 003°09'0 0.0
2018-Jun-19 08:25N 52°00' E 003°10'0 0.0
2018-Jun-19 07:49N 52°00' E 003°10'0 0.0
2018-Jun-19 07:22N 52°00' E 003°10'0 0.0
2018-Jun-19 06:58N 52°00' E 003°10'0 0.0
2018-Jun-19 06:28N 52°00' E 003°10'0 0.1
2018-Jun-19 05:52N 52°00' E 003°10'0 0.0
2018-Jun-19 05:22N 52°00' E 003°10'0 0.0
2018-Jun-19 04:46N 52°00' E 003°10'0 0.1
2018-Jun-19 01:31N 52°00' E 003°09'0 0.1
2018-Jun-18 22:07N 52°00' E 003°10'0 0.2
2018-Jun-18 21:52N 52°00' E 003°10'0 0.0
2018-Jun-18 19:52N 52°00' E 003°10'0 0.0
2018-Jun-18 19:28N 52°00' E 003°10'0 0.0
2018-Jun-18 18:55N 52°00' E 003°10'0 0.0
2018-Jun-18 18:28N 52°00' E 003°10'0 0.0
2018-Jun-18 17:40N 52°00' E 003°10'0 0.0
2018-Jun-18 17:22N 52°00' E 003°10'0 0.1
2018-Jun-18 16:58N 52°00' E 003°10'0 0.0
2018-Jun-18 16:07N 52°00' E 003°10'0 0.0
2018-Jun-18 15:58N 52°00' E 003°10'0 0.0
2018-Jun-18 15:16N 52°00' E 003°10'0 0.3
2018-Jun-18 14:40N 52°00' E 003°10'0 0.3
2018-Jun-18 14:22N 52°00' E 003°09'0 0.1
2018-Jun-18 10:10N 52°00' E 003°10'0 0.1
2018-Jun-18 08:28N 52°00' E 003°09'0 0.0
2018-Jun-18 06:40N 52°00' E 003°10'0 0.0
2018-Jun-18 06:04N 52°00' E 003°10'0 0.0
2018-Jun-18 05:58N 52°00' E 003°10'0 0.0
2018-Jun-17 21:43N 52°00' E 003°10'0 0.4
2018-Jun-17 21:30N 52°00' E 003°10'6 4.2
2018-Jun-17 20:09N 52°02' E 003°19'2 9.6
2018-Jun-17 19:59N 52°03' E 003°20'5 9.8
2018-Jun-17 19:30N 52°08' E 003°19'612.0
2018-Jun-17 18:59N 52°12' E 003°13'911.1
2018-Jun-17 18:13N 52°21' E 003°09'211.2
2018-Jun-17 18:00N 52°23' E 003°09'611.2
2018-Jun-17 17:30N 52°28' E 003°08'510.1
2018-Jun-17 16:58N 52°34' E 003°08'48612.0
2018-Jun-16 00:22N 60°38' E 004°21'411.7
2018-Jun-16 00:00N 60°41' E 004°28'4 8.1
2018-Jun-15 23:30N 60°44' E 004°32'510.6
2018-Jun-15 23:00N 60°44' E 004°43'5 9.6
2018-Jun-15 22:30N 60°41' E 004°50'4 7.9
2018-Jun-15 22:00N 60°37' E 004°52'0 0.6
2018-Jun-15 21:29N 60°37' E 004°52'0 0.0
2018-Jun-15 20:59N 60°37' E 004°52'0 0.0
2018-Jun-15 20:29N 60°37' E 004°52'0 0.0
2018-Jun-15 19:59N 60°37' E 004°52'0 0.0
2018-Jun-15 19:29N 60°37' E 004°52'0 0.0
2018-Jun-15 18:59N 60°37' E 004°52'0 0.0
2018-Jun-15 18:29N 60°37' E 004°52'0 0.0
2018-Jun-15 17:59N 60°37' E 004°52'0 0.0
2018-Jun-15 17:29N 60°37' E 004°52'0 0.0
2018-Jun-15 16:59N 60°37' E 004°52'0 0.0
2018-Jun-15 16:29N 60°37' E 004°52'0 0.0
2018-Jun-15 15:59N 60°37' E 004°52'0 0.0
2018-Jun-15 15:29N 60°37' E 004°52'0 0.0
2018-Jun-15 14:59N 60°37' E 004°52'0 0.0
2018-Jun-15 14:29N 60°37' E 004°52'0 0.0
2018-Jun-15 13:59N 60°37' E 004°52'0 0.0
2018-Jun-15 13:29N 60°37' E 004°52'0 0.0
2018-Jun-15 12:59N 60°37' E 004°52'0 0.0
2018-Jun-15 12:29N 60°37' E 004°52'0 0.0
2018-Jun-15 11:59N 60°37' E 004°52'0 0.0
2018-Jun-15 11:29N 60°37' E 004°52'0 0.0
2018-Jun-15 10:59N 60°37' E 004°52'0 0.0
2018-Jun-15 10:29N 60°37' E 004°52'0 0.0
2018-Jun-15 09:59N 60°37' E 004°52'0 0.0
2018-Jun-15 09:29N 60°37' E 004°52'0 0.0
2018-Jun-15 08:59N 60°37' E 004°52'0 0.0
2018-Jun-15 08:29N 60°37' E 004°52'0 0.0
2018-Jun-15 07:59N 60°37' E 004°52'0 0.0
2018-Jun-15 07:29N 60°37' E 004°52'0 0.0
2018-Jun-15 06:59N 60°37' E 004°52'0 0.0
2018-Jun-15 06:29N 60°37' E 004°52'0 0.0
2018-Jun-15 05:59N 60°37' E 004°52'0 0.0
2018-Jun-15 05:29N 60°37' E 004°52'0 0.0
2018-Jun-15 04:59N 60°37' E 004°52'0 0.0
2018-Jun-15 04:29N 60°37' E 004°52'0 0.0
2018-Jun-15 03:59N 60°37' E 004°52'0 0.0
2018-Jun-15 03:26N 60°37' E 004°52'0 0.0
2018-Jun-15 02:59N 60°37' E 004°52'0 0.0
2018-Jun-15 02:29N 60°37' E 004°52'0 0.0
2018-Jun-15 01:59N 60°37' E 004°52'0 0.0
2018-Jun-15 01:29N 60°37' E 004°52'0 0.0
2018-Jun-15 01:00N 60°37' E 004°52'1 1.3
2018-Jun-15 00:30N 60°38' E 004°52'3 5.5
2018-Jun-15 00:00N 60°40' E 004°51'510.2
2018-Jun-14 23:29N 60°44' E 004°43'5 9.8
2018-Jun-14 22:58N 60°45' E 004°33'3 7.0
2018-Jun-14 22:30N 60°45' E 004°26'1 2.4
2018-Jun-14 22:00N 60°44' E 004°28'3 4.8
2018-Jun-14 21:29N 60°41' E 004°27'3 5.7
2018-Jun-14 21:00N 60°39' E 004°26'1 1.4
2018-Jun-14 20:30N 60°38' E 004°25'0 0.9
2018-Jun-14 19:59N 60°38' E 004°24'1 1.3
2018-Jun-14 19:29N 60°39' E 004°24'1 1.3
2018-Jun-14 19:00N 60°39' E 004°24'1 1.5
2018-Jun-14 18:29N 60°40' E 004°24'1 1.4
2018-Jun-14 18:00N 60°41' E 004°23'2 3.0
2018-Jun-14 17:30N 60°42' E 004°21'1 2.6
2018-Jun-14 17:00N 60°43' E 004°19'20 3.5
2018-Jun-14 11:25N 61°02' E 004°14'1 3.6
2018-Jun-14 11:00N 61°01' E 004°16'3 6.6
2018-Jun-14 10:30N 60°58' E 004°16'3 6.7
2018-Jun-14 10:00N 60°54' E 004°16'11 4.2
2018-Jun-14 07:23N 60°44' E 004°19'1 3.4
2018-Jun-14 07:00N 60°42' E 004°20'2 3.1
2018-Jun-14 06:30N 60°43' E 004°23'2 4.0
2018-Jun-14 06:00N 60°42' E 004°27'5 9.7
2018-Jun-14 05:30N 60°37' E 004°23'16412.7
2018-Jun-13 16:33N 57°58' E 003°03'213.3
2018-Jun-13 16:25N 57°56' E 003°02'913.1
2018-Jun-13 15:46N 57°48' E 002°58'813.0
2018-Jun-13 15:09N 57°40' E 002°54'313.2
2018-Jun-13 14:55N 57°37' E 002°52'613.1
2018-Jun-13 14:26N 57°31' E 002°49'812.8
2018-Jun-13 13:50N 57°24' E 002°46'17112.3
2018-Jun-12 23:55N 54°46' E 000°47'612.1
2018-Jun-12 23:27N 54°41' E 000°44'512.0
2018-Jun-12 23:00N 54°35' E 000°42'612.2
2018-Jun-12 22:30N 54°29' E 000°39'612.4
2018-Jun-12 22:00N 54°24' E 000°36'612.7
2018-Jun-12 21:30N 54°17' E 000°33'612.9
2018-Jun-12 21:00N 54°11' E 000°30'713.1
2018-Jun-12 20:28N 54°04' E 000°29'2012.9
2018-Jun-12 18:54N 53°44' E 000°29'512.6
2018-Jun-12 18:30N 53°40' E 000°23'5 9.2
2018-Jun-12 17:59N 53°36' E 000°20'510.9
2018-Jun-12 17:30N 53°33' E 000°13'710.8
2018-Jun-12 16:52N 53°35' E 000°02'410.4
2018-Jun-12 16:30N 53°36' W 000°04'4 7.8
2018-Jun-12 16:00N 53°38' W 000°10'0 0.3
2018-Jun-12 15:30N 53°38' W 000°10'0 0.0
2018-Jun-12 15:00N 53°38' W 000°10'0 0.0
2018-Jun-12 14:30N 53°38' W 000°10'0 0.0
2018-Jun-12 14:00N 53°38' W 000°10'0 0.0
2018-Jun-12 13:27N 53°38' W 000°10'0 0.0
2018-Jun-12 13:00N 53°38' W 000°10'0 0.0
2018-Jun-12 12:30N 53°38' W 000°10'0 0.0
2018-Jun-12 12:00N 53°38' W 000°10'0 0.0
2018-Jun-12 11:30N 53°38' W 000°10'0 0.0
2018-Jun-12 11:00N 53°38' W 000°10'0 0.0
2018-Jun-12 10:27N 53°38' W 000°10'0 0.0
2018-Jun-12 10:00N 53°38' W 000°10'0 0.0
2018-Jun-12 09:30N 53°38' W 000°10'0 0.0
2018-Jun-12 08:57N 53°38' W 000°10'0 0.0
2018-Jun-12 08:27N 53°38' W 000°10'0 0.0
2018-Jun-12 08:00N 53°38' W 000°10'0 0.0
2018-Jun-12 07:27N 53°38' W 000°10'0 0.0
2018-Jun-12 07:00N 53°38' W 000°10'0 0.0
2018-Jun-12 06:30N 53°38' W 000°10'0 0.0
2018-Jun-12 05:57N 53°38' W 000°10'0 0.0
2018-Jun-12 05:27N 53°38' W 000°10'0 0.0
2018-Jun-12 04:48N 53°38' W 000°10'0 0.0
2018-Jun-12 04:27N 53°38' W 000°10'0 0.0
2018-Jun-12 03:57N 53°38' W 000°10'0 0.0
2018-Jun-12 03:30N 53°38' W 000°10'0 0.0
2018-Jun-12 03:00N 53°38' W 000°10'0 0.0
2018-Jun-12 02:30N 53°38' W 000°10'0 0.0
2018-Jun-12 02:00N 53°38' W 000°10'0 0.0
2018-Jun-12 01:30N 53°38' W 000°10'0 0.0
2018-Jun-12 00:57N 53°38' W 000°10'0 0.0
2018-Jun-12 00:30N 53°38' W 000°10'0 0.0
2018-Jun-12 00:00N 53°38' W 000°10'0 0.0
2018-Jun-11 23:30N 53°38' W 000°10'0 0.0
2018-Jun-11 22:57N 53°38' W 000°10'0 0.0
2018-Jun-11 22:27N 53°38' W 000°10'0 0.0
2018-Jun-11 21:36N 53°38' W 000°10'0 0.0
2018-Jun-11 21:21N 53°38' W 000°10'0 0.0
2018-Jun-11 20:57N 53°38' W 000°10'0 0.0
2018-Jun-11 20:24N 53°38' W 000°10'0 0.0
2018-Jun-11 20:00N 53°38' W 000°10'0 0.0
2018-Jun-11 19:30N 53°38' W 000°10'0 0.0
2018-Jun-11 19:00N 53°38' W 000°10'0 0.0
2018-Jun-11 18:30N 53°38' W 000°10'0 0.0
2018-Jun-11 18:00N 53°38' W 000°10'0 0.0
2018-Jun-11 17:27N 53°38' W 000°10'0 0.0
2018-Jun-11 16:54N 53°38' W 000°10'0 0.0
2018-Jun-11 16:27N 53°38' W 000°10'0 0.0
2018-Jun-11 15:57N 53°38' W 000°10'0 0.0
2018-Jun-11 15:30N 53°38' W 000°10'0 0.0
2018-Jun-11 15:00N 53°38' W 000°10'0 0.0
2018-Jun-11 14:30N 53°38' W 000°10'0 0.0
2018-Jun-11 14:00N 53°38' W 000°10'0 0.0
2018-Jun-11 13:30N 53°38' W 000°10'0 0.0
2018-Jun-11 13:00N 53°38' W 000°10'0 0.0
2018-Jun-11 12:24N 53°38' W 000°10'0 0.0
2018-Jun-11 11:57N 53°38' W 000°10'0 0.0
2018-Jun-11 11:30N 53°38' W 000°10'0 0.0
2018-Jun-11 11:00N 53°38' W 000°10'0 0.0
2018-Jun-11 10:30N 53°38' W 000°10'0 0.0
2018-Jun-11 09:57N 53°38' W 000°10'0 0.0
2018-Jun-11 09:30N 53°38' W 000°10'0 0.0
2018-Jun-11 08:51N 53°38' W 000°10'0 0.0
2018-Jun-11 08:24N 53°38' W 000°10'0 0.0
2018-Jun-11 08:00N 53°38' W 000°10'0 0.0
2018-Jun-11 07:30N 53°38' W 000°10'0 0.0
2018-Jun-11 07:00N 53°38' W 000°10'0 0.0
2018-Jun-11 06:27N 53°38' W 000°10'0 0.0
2018-Jun-11 04:28N 53°38' W 000°10'0 0.5
2018-Jun-11 04:00N 53°38' W 000°09'1 2.3
2018-Jun-11 03:30N 53°37' W 000°08'2 4.6
2018-Jun-11 03:00N 53°37' W 000°04'4 8.5
2018-Jun-11 02:30N 53°36' E 000°03'510.0
2018-Jun-11 02:00N 53°33' E 000°10'5 9.1
2018-Jun-11 01:30N 53°35' E 000°17'5 9.3
2018-Jun-11 01:00N 53°39' E 000°22'1 3.0
2018-Jun-11 00:30N 53°40' E 000°23'1 1.3
2018-Jun-11 00:00N 53°41' E 000°23'3 5.3
2018-Jun-10 23:30N 53°43' E 000°26'3 6.7
2018-Jun-10 23:00N 53°46' E 000°28'1 1.7
2018-Jun-10 22:25N 53°46' E 000°26'0 0.2
2018-Jun-10 21:52N 53°46' E 000°26'0 0.0
2018-Jun-10 20:10N 53°46' E 000°26'0 0.0
2018-Jun-10 19:52N 53°46' E 000°26'0 0.0
2018-Jun-10 19:28N 53°46' E 000°26'0 0.0
2018-Jun-10 18:55N 53°46' E 000°26'0 0.0
2018-Jun-10 18:28N 53°46' E 000°26'0 0.0
2018-Jun-10 17:55N 53°46' E 000°26'0 0.1
2018-Jun-10 17:22N 53°46' E 000°26'0 0.0
2018-Jun-10 10:16N 53°46' E 000°26'  

Dump ship's entire track history